createdAt,value
2017-11-09T00:00:20.541Z,33.50
2017-11-09T00:01:20.431Z,33.50
2017-11-09T00:02:20.518Z,33.50
2017-11-09T00:03:20.424Z,33.50
2017-11-09T00:04:20.536Z,33.50
2017-11-09T00:05:20.541Z,39.20
2017-11-09T00:06:20.484Z,39.20
2017-11-09T00:07:20.514Z,39.20
2017-11-09T00:08:20.421Z,39.20
2017-11-09T00:09:20.448Z,39.20
2017-11-09T00:10:20.444Z,39.20
2017-11-09T00:11:20.514Z,39.20
2017-11-09T00:12:20.412Z,39.20
2017-11-09T00:13:20.418Z,39.20
2017-11-09T00:14:20.508Z,39.20
2017-11-09T00:15:20.563Z,35.40
2017-11-09T00:16:20.490Z,35.40
2017-11-09T00:17:20.559Z,35.40
2017-11-09T00:18:20.490Z,35.40
2017-11-09T00:19:20.557Z,35.40
2017-11-09T00:20:20.492Z,35.40
2017-11-09T00:21:20.570Z,35.40
2017-11-09T00:22:20.494Z,35.40
2017-11-09T00:23:20.587Z,35.40
2017-11-09T00:24:20.498Z,35.40
2017-11-09T00:25:20.556Z,40.00
2017-11-09T00:26:20.490Z,40.00
2017-11-09T00:27:20.472Z,40.00
2017-11-09T00:28:20.508Z,40.00
2017-11-09T00:29:20.571Z,40.00
2017-11-09T00:30:20.470Z,40.00
2017-11-09T00:31:20.568Z,40.00
2017-11-09T00:32:20.467Z,40.00
2017-11-09T00:33:20.552Z,40.00
2017-11-09T00:34:20.476Z,40.00
2017-11-09T00:35:20.511Z,38.60
2017-11-09T00:36:20.512Z,38.60
2017-11-09T00:37:20.476Z,38.60
2017-11-09T00:38:20.572Z,38.60
2017-11-09T00:39:20.474Z,38.60
2017-11-09T00:40:20.457Z,38.60
2017-11-09T00:41:20.477Z,38.60
2017-11-09T00:42:20.498Z,38.60
2017-11-09T00:43:20.462Z,38.60
2017-11-09T00:44:20.479Z,38.60
2017-11-09T00:45:20.571Z,37.20
2017-11-09T00:46:20.577Z,37.20
2017-11-09T00:47:20.472Z,37.20
2017-11-09T00:48:20.574Z,37.20
2017-11-09T00:49:20.512Z,37.20
2017-11-09T00:50:20.546Z,37.20
2017-11-09T00:51:20.514Z,37.20
2017-11-09T00:52:20.595Z,37.20
2017-11-09T00:53:20.531Z,37.20
2017-11-09T00:54:20.603Z,37.20
2017-11-09T00:55:20.450Z,32.80
2017-11-09T00:56:20.493Z,32.80
2017-11-09T00:57:20.578Z,32.80
2017-11-09T00:58:20.573Z,32.80
2017-11-09T00:59:20.570Z,32.80
2017-11-09T01:00:20.570Z,32.80
2017-11-09T01:01:20.493Z,32.80
2017-11-09T01:02:20.498Z,32.80
2017-11-09T01:03:20.584Z,32.80
2017-11-09T01:04:20.581Z,32.80
2017-11-09T01:05:20.533Z,39.00
2017-11-09T01:06:20.533Z,39.00
2017-11-09T01:07:20.489Z,39.00
2017-11-09T01:08:20.486Z,39.00
2017-11-09T01:09:20.522Z,39.00
2017-11-09T01:10:20.441Z,39.00
2017-11-09T01:11:20.463Z,39.00
2017-11-09T01:12:20.493Z,39.00
2017-11-09T01:13:20.500Z,39.00
2017-11-09T01:14:20.537Z,39.00
2017-11-09T01:15:20.581Z,36.80
2017-11-09T01:16:20.517Z,36.80
2017-11-09T01:17:20.519Z,36.80
2017-11-09T01:18:20.580Z,36.80
2017-11-09T01:19:20.593Z,36.80
2017-11-09T01:20:20.540Z,36.80
2017-11-09T01:21:20.542Z,36.80
2017-11-09T01:22:20.546Z,36.80
2017-11-09T01:23:20.595Z,36.80
2017-11-09T01:24:20.548Z,36.80
2017-11-09T01:25:20.596Z,30.90
2017-11-09T01:26:20.628Z,30.90
2017-11-09T01:27:20.602Z,30.90
2017-11-09T01:28:20.533Z,30.90
2017-11-09T01:29:20.602Z,30.90
2017-11-09T01:30:20.555Z,30.90
2017-11-09T01:31:20.602Z,30.90
2017-11-09T01:32:20.539Z,30.90
2017-11-09T01:33:20.605Z,30.90
2017-11-09T01:34:20.602Z,30.90
2017-11-09T01:35:20.601Z,37.20
2017-11-09T01:36:20.592Z,37.20
2017-11-09T01:37:20.511Z,37.20
2017-11-09T01:38:20.515Z,37.20
2017-11-09T01:39:20.599Z,37.20
2017-11-09T01:40:20.604Z,37.20
2017-11-09T01:41:20.516Z,37.20
2017-11-09T01:42:20.532Z,37.20
2017-11-09T01:43:20.581Z,37.20
2017-11-09T01:44:20.598Z,37.20
2017-11-09T01:45:20.540Z,38.99
2017-11-09T01:46:20.600Z,38.99
2017-11-09T01:47:20.605Z,38.99
2017-11-09T01:48:20.557Z,38.99
2017-11-09T01:49:20.599Z,38.99
2017-11-09T01:50:20.488Z,38.99
2017-11-09T01:51:20.526Z,38.99
2017-11-09T01:52:20.541Z,38.99
2017-11-09T01:53:20.535Z,38.99
2017-11-09T01:54:20.603Z,38.99
2017-11-09T01:55:20.554Z,47.90
2017-11-09T01:56:20.485Z,47.90
2017-11-09T01:57:20.549Z,47.90
2017-11-09T01:58:20.575Z,47.90
2017-11-09T01:59:20.601Z,47.90
2017-11-09T02:00:20.523Z,47.90
2017-11-09T02:01:20.490Z,47.90
2017-11-09T02:02:20.602Z,47.90
2017-11-09T02:03:20.604Z,47.90
2017-11-09T02:04:20.607Z,47.90
2017-11-09T02:05:20.619Z,43.40
2017-11-09T02:06:20.624Z,43.40
2017-11-09T02:07:20.696Z,43.40
2017-11-09T02:08:20.619Z,43.40
2017-11-09T02:09:20.617Z,43.40
2017-11-09T02:10:20.622Z,43.40
2017-11-09T02:11:20.667Z,43.40
2017-11-09T02:12:20.627Z,43.40
2017-11-09T02:13:20.626Z,43.40
2017-11-09T02:14:20.632Z,43.40
2017-11-09T02:15:20.628Z,39.40
2017-11-09T02:16:20.631Z,39.40
2017-11-09T02:17:20.567Z,39.40
2017-11-09T02:18:20.630Z,39.40
2017-11-09T02:19:20.565Z,39.40
2017-11-09T02:20:20.634Z,39.40
2017-11-09T02:21:20.575Z,39.40
2017-11-09T02:22:20.518Z,39.40
2017-11-09T02:23:20.569Z,39.40
2017-11-09T02:24:20.636Z,39.40
2017-11-09T02:25:20.571Z,39.40
2017-11-09T02:26:20.568Z,40.90
2017-11-09T02:27:20.634Z,40.90
2017-11-09T02:28:20.615Z,40.90
2017-11-09T02:29:20.585Z,40.90
2017-11-09T02:30:20.639Z,40.90
2017-11-09T02:31:20.574Z,40.90
2017-11-09T02:32:20.579Z,40.90
2017-11-09T02:33:20.583Z,40.90
2017-11-09T02:34:20.638Z,40.90
2017-11-09T02:35:20.574Z,40.90
2017-11-09T02:36:20.576Z,40.50
2017-11-09T02:37:20.642Z,40.50
2017-11-09T02:38:20.578Z,40.50
2017-11-09T02:39:20.644Z,40.50
2017-11-09T02:40:20.576Z,40.50
2017-11-09T02:41:20.646Z,40.50
2017-11-09T02:42:20.643Z,40.50
2017-11-09T02:43:20.583Z,40.50
2017-11-09T02:44:20.585Z,40.50
2017-11-09T02:45:20.645Z,40.50
2017-11-09T02:46:20.583Z,44.20
2017-11-09T02:47:20.649Z,44.20
2017-11-09T02:48:20.585Z,44.20
2017-11-09T02:49:20.670Z,44.20
2017-11-09T02:50:20.649Z,44.20
2017-11-09T02:51:20.650Z,44.20
2017-11-09T02:52:20.653Z,44.20
2017-11-09T02:53:20.588Z,44.20
2017-11-09T02:54:20.589Z,44.20
2017-11-09T02:55:20.661Z,44.20
2017-11-09T02:56:20.587Z,45.40
2017-11-09T02:57:20.534Z,45.40
2017-11-09T02:58:20.590Z,45.40
2017-11-09T02:59:20.589Z,45.40
2017-11-09T03:00:20.655Z,45.40
2017-11-09T03:01:20.658Z,45.40
2017-11-09T03:02:20.602Z,45.40
2017-11-09T03:03:20.658Z,45.40
2017-11-09T03:04:20.596Z,45.40
2017-11-09T03:05:20.594Z,45.40
2017-11-09T03:06:20.644Z,39.00
2017-11-09T03:07:20.549Z,39.00
2017-11-09T03:08:20.643Z,39.00
2017-11-09T03:09:20.621Z,39.00
2017-11-09T03:10:20.554Z,39.00
2017-11-09T03:11:20.556Z,39.00
2017-11-09T03:12:20.592Z,39.00
2017-11-09T03:13:20.625Z,39.00
2017-11-09T03:14:20.625Z,39.00
2017-11-09T03:15:20.627Z,39.00
2017-11-09T03:16:20.601Z,43.60
2017-11-09T03:17:20.667Z,43.60
2017-11-09T03:18:20.618Z,43.60
2017-11-09T03:19:20.607Z,43.60
2017-11-09T03:20:20.669Z,43.60
2017-11-09T03:21:20.609Z,43.60
2017-11-09T03:22:20.665Z,43.60
2017-11-09T03:23:20.599Z,43.60
2017-11-09T03:24:20.675Z,43.60
2017-11-09T03:25:20.670Z,43.60
2017-11-09T03:26:20.665Z,39.80
2017-11-09T03:27:20.577Z,39.80
2017-11-09T03:28:20.617Z,39.80
2017-11-09T03:29:20.586Z,39.80
2017-11-09T03:30:20.577Z,39.80
2017-11-09T03:31:20.672Z,39.80
2017-11-09T03:32:20.579Z,39.80
2017-11-09T03:33:20.602Z,39.80
2017-11-09T03:34:20.578Z,39.80
2017-11-09T03:35:20.580Z,39.80
2017-11-09T03:36:20.707Z,39.80
2017-11-09T03:37:20.704Z,39.80
2017-11-09T03:38:20.676Z,39.80
2017-11-09T03:39:20.612Z,39.80
2017-11-09T03:40:20.680Z,39.80
2017-11-09T03:41:20.693Z,39.80
2017-11-09T03:42:20.613Z,39.80
2017-11-09T03:43:20.682Z,39.80
2017-11-09T03:44:20.682Z,39.80
2017-11-09T03:45:20.680Z,39.80
2017-11-09T03:46:20.621Z,42.80
2017-11-09T03:47:20.682Z,42.80
2017-11-09T03:48:20.683Z,42.80
2017-11-09T03:49:20.618Z,42.80
2017-11-09T03:50:20.685Z,42.80
2017-11-09T03:51:20.687Z,42.80
2017-11-09T03:52:20.691Z,42.80
2017-11-09T03:53:20.624Z,42.80
2017-11-09T03:54:20.689Z,42.80
2017-11-09T03:55:20.688Z,42.80
2017-11-09T03:56:20.587Z,47.00
2017-11-09T03:57:20.683Z,47.00
2017-11-09T03:58:20.556Z,47.00
2017-11-09T03:59:20.633Z,47.00
2017-11-09T04:00:20.562Z,47.00
2017-11-09T04:01:20.556Z,47.00
2017-11-09T04:02:20.622Z,47.00
2017-11-09T04:03:20.694Z,47.00
2017-11-09T04:04:20.630Z,47.00
2017-11-09T04:05:20.595Z,47.00
2017-11-09T04:06:20.631Z,45.70
2017-11-09T04:07:20.699Z,45.70
2017-11-09T04:08:20.633Z,45.70
2017-11-09T04:09:20.696Z,45.70
2017-11-09T04:10:20.700Z,45.70
2017-11-09T04:11:20.696Z,45.70
2017-11-09T04:12:20.674Z,45.70
2017-11-09T04:13:20.637Z,45.70
2017-11-09T04:14:20.701Z,45.70
2017-11-09T04:15:20.700Z,45.70
2017-11-09T04:16:20.640Z,48.10
2017-11-09T04:17:20.700Z,48.10
2017-11-09T04:18:20.641Z,48.10
2017-11-09T04:19:20.642Z,48.10
2017-11-09T04:20:20.706Z,48.10
2017-11-09T04:21:20.638Z,48.10
2017-11-09T04:22:20.705Z,48.10
2017-11-09T04:23:20.640Z,48.10
2017-11-09T04:24:20.711Z,48.10
2017-11-09T04:25:20.705Z,48.10
2017-11-09T04:26:20.651Z,48.50
2017-11-09T04:27:20.700Z,48.50
2017-11-09T04:28:20.609Z,48.50
2017-11-09T04:29:20.616Z,48.50
2017-11-09T04:30:20.711Z,48.50
2017-11-09T04:31:20.617Z,48.50
2017-11-09T04:32:20.667Z,48.50
2017-11-09T04:33:20.704Z,48.50
2017-11-09T04:34:20.634Z,48.50
2017-11-09T04:35:20.703Z,48.50
2017-11-09T04:36:20.661Z,57.30
2017-11-09T04:37:20.660Z,57.30
2017-11-09T04:38:20.673Z,57.30
2017-11-09T04:39:20.662Z,57.30
2017-11-09T04:40:20.619Z,57.30
2017-11-09T04:41:20.571Z,57.30
2017-11-09T04:42:20.570Z,57.30
2017-11-09T04:43:20.665Z,57.30
2017-11-09T04:44:20.664Z,57.30
2017-11-09T04:45:20.667Z,57.30
2017-11-09T04:46:20.720Z,58.10
2017-11-09T04:47:20.669Z,58.10
2017-11-09T04:48:20.657Z,58.10
2017-11-09T04:49:20.719Z,58.10
2017-11-09T04:50:20.658Z,58.10
2017-11-09T04:51:20.663Z,58.10
2017-11-09T04:52:20.723Z,58.10
2017-11-09T04:53:20.657Z,58.10
2017-11-09T04:54:20.724Z,58.10
2017-11-09T04:55:20.673Z,58.10
2017-11-09T04:56:20.628Z,50.90
2017-11-09T04:57:20.716Z,50.90
2017-11-09T04:58:20.685Z,50.90
2017-11-09T04:59:20.686Z,50.90
2017-11-09T05:00:20.652Z,50.90
2017-11-09T05:01:20.593Z,50.90
2017-11-09T05:02:20.681Z,50.90
2017-11-09T05:03:20.666Z,50.90
2017-11-09T05:04:20.662Z,50.90
2017-11-09T05:05:20.720Z,50.90
2017-11-09T05:06:20.663Z,50.20
2017-11-09T05:07:20.731Z,50.20
2017-11-09T05:08:20.765Z,50.20
2017-11-09T05:09:20.734Z,50.20
2017-11-09T05:10:20.734Z,50.20
2017-11-09T05:11:20.698Z,50.20
2017-11-09T05:12:20.682Z,50.20
2017-11-09T05:13:20.732Z,50.20
2017-11-09T05:14:20.677Z,50.20
2017-11-09T05:15:20.756Z,50.20
2017-11-09T05:16:20.709Z,60.30
2017-11-09T05:18:20.644Z,60.30
2017-11-09T05:19:20.609Z,60.30
2017-11-09T05:20:20.738Z,60.30
2017-11-09T05:21:20.645Z,60.30
2017-11-09T05:22:20.734Z,60.30
2017-11-09T05:23:20.653Z,60.30
2017-11-09T05:24:20.735Z,60.30
2017-11-09T05:25:20.744Z,60.30
2017-11-09T05:26:20.746Z,55.10
2017-11-09T05:27:20.676Z,55.10
2017-11-09T05:28:20.680Z,55.10
2017-11-09T05:29:20.679Z,55.10
2017-11-09T05:30:20.679Z,55.10
2017-11-09T05:31:20.679Z,55.10
2017-11-09T05:32:20.751Z,55.10
2017-11-09T05:33:20.747Z,55.10
2017-11-09T05:34:20.683Z,55.10
2017-11-09T05:35:20.750Z,55.10
2017-11-09T05:36:20.711Z,65.40
2017-11-09T05:37:20.653Z,65.40
2017-11-09T05:38:20.749Z,65.40
2017-11-09T05:39:20.743Z,65.40
2017-11-09T05:40:20.632Z,65.40
2017-11-09T05:41:20.746Z,65.40
2017-11-09T05:42:20.658Z,65.40
2017-11-09T05:43:20.742Z,65.40
2017-11-09T05:44:20.783Z,65.40
2017-11-09T05:45:20.740Z,65.40
2017-11-09T05:46:20.728Z,61.40
2017-11-09T05:47:20.692Z,61.40
2017-11-09T05:48:20.695Z,61.40
2017-11-09T05:49:20.771Z,61.40
2017-11-09T05:50:20.693Z,61.40
2017-11-09T05:51:20.759Z,61.40
2017-11-09T05:52:20.691Z,61.40
2017-11-09T05:53:20.761Z,61.40
2017-11-09T05:54:20.694Z,61.40
2017-11-09T05:55:20.761Z,61.40
2017-11-09T05:56:20.703Z,63.60
2017-11-09T05:57:20.702Z,63.60
2017-11-09T05:58:20.761Z,63.60
2017-11-09T05:59:20.704Z,63.60
2017-11-09T06:00:20.730Z,63.60
2017-11-09T06:01:20.764Z,63.60
2017-11-09T06:02:20.697Z,63.60
2017-11-09T06:03:20.770Z,63.60
2017-11-09T06:04:20.771Z,63.60
2017-11-09T06:05:20.767Z,63.60
2017-11-09T06:06:20.719Z,58.30
2017-11-09T06:07:20.704Z,58.30
2017-11-09T06:08:20.708Z,58.30
2017-11-09T06:09:20.705Z,58.30
2017-11-09T06:10:20.769Z,58.30
2017-11-09T06:11:20.708Z,58.30
2017-11-09T06:12:20.769Z,58.30
2017-11-09T06:13:20.708Z,58.30
2017-11-09T06:14:20.776Z,58.30
2017-11-09T06:15:20.709Z,58.30
2017-11-09T06:16:20.779Z,61.50
2017-11-09T06:17:20.706Z,61.50
2017-11-09T06:18:20.772Z,61.50
2017-11-09T06:19:20.773Z,61.50
2017-11-09T06:20:20.711Z,61.50
2017-11-09T06:21:20.708Z,61.50
2017-11-09T06:22:20.794Z,61.50
2017-11-09T06:23:20.714Z,61.50
2017-11-09T06:24:20.977Z,61.50
2017-11-09T06:25:20.779Z,61.50
2017-11-09T06:26:20.745Z,52.70
2017-11-09T06:27:20.715Z,52.70
2017-11-09T06:28:20.781Z,52.70
2017-11-09T06:29:20.785Z,52.70
2017-11-09T06:30:20.779Z,52.70
2017-11-09T06:31:20.780Z,52.70
2017-11-09T06:32:20.722Z,52.70
2017-11-09T06:33:20.787Z,52.70
2017-11-09T06:34:20.723Z,52.70
2017-11-09T06:35:20.784Z,52.70
2017-11-09T06:36:20.720Z,49.90
2017-11-09T06:37:20.724Z,49.90
2017-11-09T06:38:20.791Z,49.90
2017-11-09T06:39:20.721Z,49.90
2017-11-09T06:40:20.786Z,49.90
2017-11-09T06:41:20.726Z,49.90
2017-11-09T06:42:20.790Z,49.90
2017-11-09T06:43:20.728Z,49.90
2017-11-09T06:44:20.684Z,49.90
2017-11-09T06:45:20.789Z,49.90
2017-11-09T06:46:20.662Z,47.10
2017-11-09T06:47:20.699Z,47.10
2017-11-09T06:48:20.698Z,47.10
2017-11-09T06:49:20.738Z,47.10
2017-11-09T06:50:20.782Z,47.10
2017-11-09T06:51:20.719Z,47.10
2017-11-09T06:52:20.783Z,47.10
2017-11-09T06:53:20.786Z,47.10
2017-11-09T06:54:20.788Z,47.10
2017-11-09T06:55:20.794Z,47.10
2017-11-09T06:56:20.793Z,50.50
2017-11-09T06:57:20.721Z,50.50
2017-11-09T06:58:20.753Z,50.50
2017-11-09T06:59:20.677Z,50.50
2017-11-09T07:00:20.796Z,50.50
2017-11-09T07:01:20.800Z,50.50
2017-11-09T07:02:20.726Z,50.50
2017-11-09T07:03:20.751Z,50.50
2017-11-09T07:04:20.665Z,50.50
2017-11-09T07:05:20.793Z,50.50
2017-11-09T07:06:20.735Z,49.30
2017-11-09T07:07:20.758Z,49.30
2017-11-09T07:08:20.795Z,49.30
2017-11-09T07:09:20.794Z,49.30
2017-11-09T07:10:20.707Z,49.30
2017-11-09T07:11:20.752Z,49.30
2017-11-09T07:12:20.708Z,49.30
2017-11-09T07:13:20.738Z,49.30
2017-11-09T07:14:20.793Z,49.30
2017-11-09T07:15:20.773Z,49.30
2017-11-09T07:16:20.715Z,50.70
2017-11-09T07:17:20.677Z,50.70
2017-11-09T07:18:20.706Z,50.70
2017-11-09T07:19:20.766Z,50.70
2017-11-09T07:20:20.719Z,50.70
2017-11-09T07:21:20.800Z,50.70
2017-11-09T07:22:20.713Z,50.70
2017-11-09T07:23:20.716Z,50.70
2017-11-09T07:24:20.783Z,50.70
2017-11-09T07:25:20.712Z,50.70
2017-11-09T07:26:20.744Z,51.80
2017-11-09T07:27:20.815Z,51.80
2017-11-09T07:28:20.812Z,51.80
2017-11-09T07:29:20.815Z,51.80
2017-11-09T07:30:20.829Z,51.80
2017-11-09T07:31:20.750Z,51.80
2017-11-09T07:32:20.750Z,51.80
2017-11-09T07:33:20.819Z,51.80
2017-11-09T07:34:20.790Z,51.80
2017-11-09T07:35:20.819Z,51.80
2017-11-09T07:36:20.727Z,56.70
2017-11-09T07:37:20.774Z,56.70
2017-11-09T07:38:20.730Z,56.70
2017-11-09T07:39:20.727Z,56.70
2017-11-09T07:40:20.742Z,56.70
2017-11-09T07:41:20.812Z,56.70
2017-11-09T07:42:20.750Z,56.70
2017-11-09T07:43:20.815Z,56.70
2017-11-09T07:44:20.809Z,56.70
2017-11-09T07:45:20.816Z,56.70
2017-11-09T07:46:20.825Z,57.50
2017-11-09T07:47:20.758Z,57.50
2017-11-09T07:48:20.828Z,57.50
2017-11-09T07:49:20.763Z,57.50
2017-11-09T07:50:20.768Z,57.50
2017-11-09T07:51:20.827Z,57.50
2017-11-09T07:52:20.758Z,57.50
2017-11-09T07:53:20.832Z,57.50
2017-11-09T07:54:20.766Z,57.50
2017-11-09T07:55:20.831Z,57.50
2017-11-09T07:56:20.767Z,55.40
2017-11-09T07:57:20.832Z,55.40
2017-11-09T07:58:20.763Z,55.40
2017-11-09T07:59:20.836Z,55.40
2017-11-09T08:00:20.766Z,55.40
2017-11-09T08:01:20.834Z,55.40
2017-11-09T08:02:20.770Z,55.40
2017-11-09T08:03:20.835Z,55.40
2017-11-09T08:04:20.770Z,55.40
2017-11-09T08:05:20.837Z,55.40
2017-11-09T08:06:20.770Z,55.10
2017-11-09T08:07:20.845Z,55.10
2017-11-09T08:08:20.783Z,55.10
2017-11-09T08:09:20.839Z,55.10
2017-11-09T08:10:20.839Z,55.10
2017-11-09T08:11:20.773Z,55.10
2017-11-09T08:12:20.840Z,55.10
2017-11-09T08:13:20.843Z,55.10
2017-11-09T08:14:20.843Z,55.10
2017-11-09T08:15:20.773Z,55.10
2017-11-09T08:16:20.703Z,58.00
2017-11-09T08:17:20.710Z,58.00
2017-11-09T08:18:20.708Z,58.00
2017-11-09T08:19:20.827Z,58.00
2017-11-09T08:20:20.770Z,58.00
2017-11-09T08:21:20.803Z,58.00
2017-11-09T08:22:20.784Z,58.00
2017-11-09T08:23:20.736Z,58.00
2017-11-09T08:24:20.708Z,58.00
2017-11-09T08:25:20.773Z,58.00
2017-11-09T08:26:20.853Z,51.80
2017-11-09T08:27:20.790Z,51.80
2017-11-09T08:28:20.852Z,51.80
2017-11-09T08:29:20.853Z,51.80
2017-11-09T08:30:20.853Z,51.80
2017-11-09T08:31:20.815Z,51.80
2017-11-09T08:32:20.796Z,51.80
2017-11-09T08:33:20.829Z,51.80
2017-11-09T08:34:20.858Z,51.80
2017-11-09T08:35:20.791Z,51.80
2017-11-09T08:36:20.856Z,57.80
2017-11-09T08:37:20.788Z,57.80
2017-11-09T08:38:20.865Z,57.80
2017-11-09T08:39:20.788Z,57.80
2017-11-09T08:40:20.793Z,57.80
2017-11-09T08:41:20.860Z,57.80
2017-11-09T08:42:20.795Z,57.80
2017-11-09T08:43:20.863Z,57.80
2017-11-09T08:44:20.794Z,57.80
2017-11-09T08:45:20.861Z,57.80
2017-11-09T08:46:20.863Z,57.50
2017-11-09T08:47:20.795Z,57.50
2017-11-09T08:48:20.865Z,57.50
2017-11-09T08:49:20.803Z,57.50
2017-11-09T08:50:20.798Z,57.50
2017-11-09T08:51:20.863Z,57.50
2017-11-09T08:52:20.802Z,57.50
2017-11-09T08:53:20.869Z,57.50
2017-11-09T08:54:20.800Z,57.50
2017-11-09T08:55:20.799Z,57.50
2017-11-09T08:56:20.801Z,58.40
2017-11-09T08:57:20.868Z,58.40
2017-11-09T08:58:20.798Z,58.40
2017-11-09T08:59:20.872Z,58.40
2017-11-09T09:01:20.873Z,58.40
2017-11-09T09:02:20.806Z,58.40
2017-11-09T09:03:20.958Z,58.40
2017-11-09T09:04:20.872Z,58.40
2017-11-09T09:05:20.874Z,58.40
2017-11-09T09:06:20.874Z,59.60
2017-11-09T09:07:20.806Z,59.60
2017-11-09T09:08:20.809Z,59.60
2017-11-09T09:09:20.875Z,59.60
2017-11-09T09:10:20.874Z,59.60
2017-11-09T09:11:20.811Z,59.60
2017-11-09T09:12:20.878Z,59.60
2017-11-09T09:13:20.812Z,59.60
2017-11-09T09:14:20.814Z,59.60
2017-11-09T09:15:20.773Z,59.60
2017-11-09T09:16:20.879Z,51.40
2017-11-09T09:17:20.881Z,51.40
2017-11-09T09:18:20.882Z,51.40
2017-11-09T09:19:20.814Z,51.40
2017-11-09T09:20:20.815Z,51.40
2017-11-09T09:21:20.890Z,51.40
2017-11-09T09:22:20.835Z,51.40
2017-11-09T09:23:20.883Z,51.40
2017-11-09T09:24:20.885Z,51.40
2017-11-09T09:25:20.884Z,51.40
2017-11-09T09:26:20.812Z,47.00
2017-11-09T09:27:20.842Z,47.00
2017-11-09T09:28:20.777Z,47.00
2017-11-09T09:29:20.781Z,47.00
2017-11-09T09:30:20.755Z,47.00
2017-11-09T09:31:20.846Z,47.00
2017-11-09T09:32:20.840Z,47.00
2017-11-09T09:33:20.852Z,47.00
2017-11-09T09:34:20.787Z,47.00
2017-11-09T09:35:20.841Z,47.00
2017-11-09T09:36:20.899Z,48.90
2017-11-09T09:37:20.893Z,48.90
2017-11-09T09:38:20.900Z,48.90
2017-11-09T09:39:20.826Z,48.90
2017-11-09T09:40:20.831Z,48.90
2017-11-09T09:41:20.830Z,48.90
2017-11-09T09:42:20.895Z,48.90
2017-11-09T09:43:20.830Z,48.90
2017-11-09T09:44:20.909Z,48.90
2017-11-09T09:45:20.834Z,48.90
2017-11-09T09:46:20.823Z,48.90
2017-11-09T09:47:20.834Z,53.10
2017-11-09T09:48:20.781Z,53.10
2017-11-09T09:49:20.901Z,53.10
2017-11-09T09:50:20.902Z,53.10
2017-11-09T09:51:20.829Z,53.10
2017-11-09T09:52:20.901Z,53.10
2017-11-09T09:53:20.832Z,53.10
2017-11-09T09:54:20.838Z,53.10
2017-11-09T09:55:20.901Z,53.10
2017-11-09T09:56:20.835Z,53.10
2017-11-09T09:57:20.770Z,57.00
2017-11-09T09:58:20.854Z,57.00
2017-11-09T09:59:20.792Z,57.00
2017-11-09T10:00:20.891Z,57.00
2017-11-09T10:01:20.849Z,57.00
2017-11-09T10:02:20.853Z,57.00
2017-11-09T10:03:20.805Z,57.00
2017-11-09T10:04:20.893Z,57.00
2017-11-09T10:05:20.864Z,57.00
2017-11-09T10:06:20.782Z,57.00
2017-11-09T10:07:20.844Z,63.70
2017-11-09T10:08:20.910Z,63.70
2017-11-09T10:09:20.851Z,63.70
2017-11-09T10:10:20.915Z,63.70
2017-11-09T10:11:20.850Z,63.70
2017-11-09T10:12:20.846Z,63.70
2017-11-09T10:13:20.915Z,63.70
2017-11-09T10:14:20.849Z,63.70
2017-11-09T10:15:20.914Z,63.70
2017-11-09T10:16:20.848Z,63.70
2017-11-09T10:17:20.918Z,57.90
2017-11-09T10:18:20.919Z,57.90
2017-11-09T10:19:20.850Z,57.90
2017-11-09T10:20:20.919Z,57.90
2017-11-09T10:21:20.920Z,57.90
2017-11-09T10:22:20.967Z,57.90
2017-11-09T10:23:20.919Z,57.90
2017-11-09T10:24:20.921Z,57.90
2017-11-09T10:25:20.853Z,57.90
2017-11-09T10:26:20.855Z,57.90
2017-11-09T10:27:20.921Z,56.30
2017-11-09T10:28:20.860Z,56.30
2017-11-09T10:29:20.928Z,56.30
2017-11-09T10:30:20.858Z,56.30
2017-11-09T10:31:20.926Z,56.30
2017-11-09T10:32:20.857Z,56.30
2017-11-09T10:33:20.875Z,56.30
2017-11-09T10:34:20.926Z,56.30
2017-11-09T10:35:20.860Z,56.30
2017-11-09T10:36:20.864Z,56.30
2017-11-09T10:37:20.838Z,52.10
2017-11-09T10:38:20.857Z,52.10
2017-11-09T10:39:20.887Z,52.10
2017-11-09T10:40:20.794Z,52.10
2017-11-09T10:41:20.887Z,52.10
2017-11-09T10:42:20.930Z,52.10
2017-11-09T10:43:20.842Z,52.10
2017-11-09T10:44:20.819Z,52.10
2017-11-09T10:45:20.808Z,52.10
2017-11-09T10:46:20.865Z,52.10
2017-11-09T10:47:20.843Z,57.50
2017-11-09T10:48:20.926Z,57.50
2017-11-09T10:49:20.927Z,57.50
2017-11-09T10:50:20.819Z,57.50
2017-11-09T10:51:20.928Z,57.50
2017-11-09T10:52:20.858Z,57.50
2017-11-09T10:53:20.921Z,57.50
2017-11-09T10:54:20.840Z,57.50
2017-11-09T10:55:20.936Z,57.50
2017-11-09T10:56:20.874Z,57.50
2017-11-09T10:57:20.874Z,56.40
2017-11-09T10:58:20.942Z,56.40
2017-11-09T10:59:20.878Z,56.40
2017-11-09T11:00:20.876Z,56.40
2017-11-09T11:01:20.893Z,56.40
2017-11-09T11:02:20.878Z,56.40
2017-11-09T11:03:20.883Z,56.40
2017-11-09T11:04:20.879Z,56.40
2017-11-09T11:05:20.874Z,56.40
2017-11-09T11:06:20.946Z,56.40
2017-11-09T11:07:20.882Z,51.60
2017-11-09T11:08:20.949Z,51.60
2017-11-09T11:09:20.881Z,51.60
2017-11-09T11:10:20.883Z,51.60
2017-11-09T11:11:20.981Z,51.60
2017-11-09T11:12:20.949Z,51.60
2017-11-09T11:13:20.982Z,51.60
2017-11-09T11:14:20.883Z,51.60
2017-11-09T11:15:20.952Z,51.60
2017-11-09T11:16:20.912Z,51.60
2017-11-09T11:17:20.885Z,48.30
2017-11-09T11:18:20.951Z,48.30
2017-11-09T11:19:20.881Z,48.30
2017-11-09T11:20:20.955Z,48.30
2017-11-09T11:21:20.885Z,48.30
2017-11-09T11:22:20.956Z,48.30
2017-11-09T11:23:20.954Z,48.30
2017-11-09T11:24:20.957Z,48.30
2017-11-09T11:25:20.895Z,48.30
2017-11-09T11:26:20.894Z,48.30
2017-11-09T11:27:20.910Z,46.40
2017-11-09T11:28:20.946Z,46.40
2017-11-09T11:29:20.827Z,46.40
2017-11-09T11:30:20.846Z,46.40
2017-11-09T11:31:20.936Z,46.40
2017-11-09T11:32:20.863Z,46.40
2017-11-09T11:33:20.830Z,46.40
2017-11-09T11:34:20.931Z,46.40
2017-11-09T11:35:20.960Z,46.40
2017-11-09T11:36:20.869Z,46.40
2017-11-09T11:37:20.965Z,48.90
2017-11-09T11:38:20.904Z,48.90
2017-11-09T11:39:20.967Z,48.90
2017-11-09T11:40:20.967Z,48.90
2017-11-09T11:41:20.968Z,48.90
2017-11-09T11:42:20.979Z,48.90
2017-11-09T11:43:20.901Z,48.90
2017-11-09T11:44:20.969Z,48.90
2017-11-09T11:45:20.900Z,48.90
2017-11-09T11:46:20.970Z,48.90
2017-11-09T11:47:20.903Z,47.40
2017-11-09T11:48:20.973Z,47.40
2017-11-09T11:49:20.971Z,47.40
2017-11-09T11:50:20.902Z,47.40
2017-11-09T11:51:20.970Z,47.40
2017-11-09T11:52:20.910Z,47.40
2017-11-09T11:53:20.977Z,47.40
2017-11-09T11:54:20.905Z,47.40
2017-11-09T11:55:20.978Z,47.40
2017-11-09T11:56:20.918Z,47.40
2017-11-09T11:57:20.977Z,44.80
2017-11-09T11:58:20.981Z,44.80
2017-11-09T11:59:20.918Z,44.80
2017-11-09T12:00:21.016Z,44.80
2017-11-09T12:01:20.981Z,44.80
2017-11-09T12:02:20.910Z,44.80
2017-11-09T12:03:20.979Z,44.80
2017-11-09T12:04:20.911Z,44.80
2017-11-09T12:05:20.981Z,44.80
2017-11-09T12:06:20.911Z,44.80
2017-11-09T12:07:20.922Z,46.50
2017-11-09T12:08:20.989Z,46.50
2017-11-09T12:09:20.910Z,46.50
2017-11-09T12:10:20.987Z,46.50
2017-11-09T12:11:20.920Z,46.50
2017-11-09T12:12:20.992Z,46.50
2017-11-09T12:13:20.918Z,46.50
2017-11-09T12:14:20.987Z,46.50
2017-11-09T12:15:20.921Z,46.50
2017-11-09T12:16:20.989Z,46.50
2017-11-09T12:17:20.953Z,45.10
2017-11-09T12:18:20.955Z,45.10
2017-11-09T12:19:20.975Z,45.10
2017-11-09T12:20:20.978Z,45.10
2017-11-09T12:21:20.977Z,45.10
2017-11-09T12:22:20.983Z,45.10
2017-11-09T12:23:20.964Z,45.10
2017-11-09T12:24:20.919Z,45.10
2017-11-09T12:25:20.958Z,45.10
2017-11-09T12:26:20.920Z,45.10
2017-11-09T12:27:20.837Z,51.00
2017-11-09T12:28:20.923Z,51.00
2017-11-09T12:29:20.814Z,51.00
2017-11-09T12:30:20.814Z,51.00
2017-11-09T12:31:20.816Z,51.00
2017-11-09T12:32:20.848Z,51.00
2017-11-09T12:33:20.901Z,51.00
2017-11-09T12:34:20.929Z,51.00
2017-11-09T12:35:20.913Z,51.00
2017-11-09T12:36:20.941Z,51.00
2017-11-09T12:37:21.000Z,44.70
2017-11-09T12:38:20.946Z,44.70
2017-11-09T12:39:21.001Z,44.70
2017-11-09T12:40:20.965Z,44.70
2017-11-09T12:41:21.003Z,44.70
2017-11-09T12:42:21.010Z,44.70
2017-11-09T12:43:21.004Z,44.70
2017-11-09T12:44:20.937Z,44.70
2017-11-09T12:45:21.005Z,44.70
2017-11-09T12:46:20.939Z,44.70
2017-11-09T12:47:20.958Z,52.00
2017-11-09T12:48:20.876Z,52.00
2017-11-09T12:49:20.878Z,52.00
2017-11-09T12:50:20.965Z,52.00
2017-11-09T12:51:20.958Z,52.00
2017-11-09T12:52:20.902Z,52.00
2017-11-09T12:53:20.902Z,52.00
2017-11-09T12:54:20.914Z,52.00